createdAt,value
2022-08-11T00:01:23.305Z,42.36
2022-08-11T00:03:59.740Z,42.67
2022-08-11T00:06:32.994Z,42.83
2022-08-11T00:09:01.882Z,42.66
2022-08-11T00:11:44.883Z,43.13
2022-08-11T00:14:37.579Z,43.14
2022-08-11T00:17:12.989Z,43.46
2022-08-11T00:20:12.649Z,43.55
2022-08-11T00:22:30.985Z,43.63
2022-08-11T00:25:02.427Z,43.55
2022-08-11T00:27:37.562Z,43.20
2022-08-11T00:30:06.283Z,43.74
2022-08-11T00:32:34.029Z,44.04
2022-08-11T00:35:50.943Z,44.19
2022-08-11T00:37:52.065Z,44.42
2022-08-11T00:40:42.322Z,44.09
2022-08-11T00:43:24.138Z,44.19
2022-08-11T00:46:38.391Z,44.07
2022-08-11T00:49:11.962Z,43.92
2022-08-11T00:52:04.595Z,43.51
2022-08-11T00:54:38.491Z,43.89
2022-08-11T00:57:42.427Z,43.70
2022-08-11T01:00:16.541Z,43.71
2022-08-11T01:03:13.039Z,43.70
2022-08-11T01:05:42.397Z,43.84
2022-08-11T01:08:23.273Z,43.92
2022-08-11T01:11:17.786Z,44.05
2022-08-11T01:14:05.696Z,44.40
2022-08-11T01:16:53.795Z,44.41
2022-08-11T01:20:44.725Z,44.65
2022-08-11T01:22:52.658Z,44.84
2022-08-11T01:25:19.111Z,44.78
2022-08-11T01:28:26.192Z,45.10
2022-08-11T01:31:30.059Z,45.01
2022-08-11T01:34:26.994Z,45.29
2022-08-11T01:37:13.663Z,45.96
2022-08-11T01:39:49.332Z,46.27
2022-08-11T01:42:40.784Z,46.58
2022-08-11T01:45:28.367Z,46.56
2022-08-11T01:48:37.997Z,46.79
2022-08-11T01:51:25.697Z,46.97
2022-08-11T01:54:00.083Z,47.13
2022-08-11T01:56:42.143Z,47.16
2022-08-11T01:59:08.581Z,47.11
2022-08-11T02:02:16.645Z,47.25
2022-08-11T02:04:59.964Z,47.32
2022-08-11T02:07:38.728Z,47.54
2022-08-11T02:10:43.309Z,47.81
2022-08-11T02:13:44.900Z,47.60
2022-08-11T02:16:28.053Z,47.54
2022-08-11T02:19:47.313Z,47.80
2022-08-11T02:22:35.597Z,47.98
2022-08-11T02:25:07.060Z,48.13
2022-08-11T02:27:41.715Z,48.11
2022-08-11T02:30:13.614Z,48.01
2022-08-11T02:33:24.555Z,48.48
2022-08-11T02:36:16.687Z,48.87
2022-08-11T02:39:06.605Z,49.02
2022-08-11T02:42:35.239Z,49.32
2022-08-11T02:45:21.285Z,49.83
2022-08-11T02:48:09.324Z,49.96
2022-08-11T02:50:42.722Z,50.11
2022-08-11T02:53:36.673Z,50.26
2022-08-11T02:56:44.728Z,50.64
2022-08-11T02:59:42.420Z,50.74
2022-08-11T03:02:19.916Z,50.62
2022-08-11T03:05:01.199Z,50.51
2022-08-11T03:07:40.059Z,50.48
2022-08-11T03:10:44.139Z,50.42
2022-08-11T03:13:50.866Z,50.41
2022-08-11T03:16:51.582Z,50.77
2022-08-11T03:19:34.641Z,50.64
2022-08-11T03:22:19.550Z,50.85
2022-08-11T03:24:46.536Z,51.05
2022-08-11T03:27:40.209Z,50.90
2022-08-11T03:30:16.293Z,51.46
2022-08-11T03:33:20.121Z,52.19
2022-08-11T03:36:11.082Z,52.80
2022-08-11T03:39:06.230Z,53.15
2022-08-11T03:42:02.545Z,53.59
2022-08-11T03:45:09.920Z,53.18
2022-08-11T03:47:53.491Z,53.52
2022-08-11T03:50:46.374Z,53.44
2022-08-11T03:53:53.792Z,53.03
2022-08-11T03:56:55.004Z,53.53
2022-08-11T03:59:37.775Z,53.40
2022-08-11T04:02:48.003Z,53.19
2022-08-11T04:05:33.470Z,53.18
2022-08-11T04:08:35.276Z,53.32
2022-08-11T04:11:08.013Z,53.38
2022-08-11T04:13:55.181Z,53.52
2022-08-11T04:16:44.664Z,53.63
2022-08-11T04:19:38.914Z,53.73
2022-08-11T04:22:48.361Z,53.99
2022-08-11T04:25:58.652Z,53.66
2022-08-11T04:28:56.395Z,53.76
2022-08-11T04:31:55.592Z,54.25
2022-08-11T04:34:49.475Z,54.61
2022-08-11T04:37:53.704Z,54.80
2022-08-11T04:40:41.483Z,54.69
2022-08-11T04:44:02.881Z,54.65
2022-08-11T04:46:58.029Z,54.63
2022-08-11T04:49:55.194Z,55.21
2022-08-11T04:52:55.546Z,55.02
2022-08-11T04:56:02.535Z,54.47
2022-08-11T04:59:33.475Z,54.15
2022-08-11T05:03:08.767Z,54.13
2022-08-11T05:05:35.892Z,54.22
2022-08-11T05:08:24.045Z,53.84
2022-08-11T05:11:06.194Z,54.25
2022-08-11T05:13:56.043Z,54.22
2022-08-11T05:16:49.656Z,54.43
2022-08-11T05:19:40.005Z,54.74
2022-08-11T05:22:31.274Z,54.72
2022-08-11T05:26:44.264Z,54.26
2022-08-11T05:28:56.338Z,53.90
2022-08-11T05:31:50.939Z,53.67
2022-08-11T05:34:44.160Z,53.58
2022-08-11T05:37:28.274Z,54.25
2022-08-11T05:40:24.447Z,53.93
2022-08-11T05:43:16.983Z,53.29
2022-08-11T05:46:05.430Z,52.72
2022-08-11T05:48:52.922Z,52.34
2022-08-11T05:51:39.072Z,51.84
2022-08-11T05:54:36.298Z,51.67
2022-08-11T05:57:03.322Z,51.96
2022-08-11T05:59:31.743Z,51.88
2022-08-11T06:02:04.260Z,51.04
2022-08-11T06:04:31.557Z,50.72
2022-08-11T06:07:01.309Z,49.12
2022-08-11T06:09:31.895Z,49.19
2022-08-11T06:12:03.390Z,49.42
2022-08-11T06:14:31.085Z,49.28
2022-08-11T06:17:00.371Z,49.66
2022-08-11T06:19:41.511Z,49.65
2022-08-11T06:22:11.330Z,48.69
2022-08-11T06:24:42.758Z,48.58
2022-08-11T06:27:13.865Z,48.94
2022-08-11T06:29:55.066Z,48.43
2022-08-11T06:32:36.094Z,48.08
2022-08-11T06:35:17.885Z,47.66
2022-08-11T06:38:13.201Z,47.30
2022-08-11T06:41:19.826Z,47.40
2022-08-11T06:44:05.315Z,46.93
2022-08-11T06:46:39.081Z,46.73
2022-08-11T06:49:28.261Z,46.43
2022-08-11T06:52:00.642Z,46.70
2022-08-11T06:54:38.768Z,47.18
2022-08-11T06:57:29.813Z,46.59
2022-08-11T07:00:15.540Z,46.15
2022-08-11T07:02:56.357Z,45.83
2022-08-11T07:05:37.864Z,44.92
2022-08-11T07:08:51.131Z,44.05
2022-08-11T07:11:57.667Z,44.21
2022-08-11T07:14:46.366Z,43.76
2022-08-11T07:17:19.687Z,42.99
2022-08-11T07:20:11.824Z,41.29
2022-08-11T07:23:02.353Z,40.97
2022-08-11T07:25:52.109Z,40.69
2022-08-11T07:28:41.754Z,40.68
2022-08-11T07:31:14.780Z,39.99
2022-08-11T07:34:07.502Z,40.06
2022-08-11T07:36:42.834Z,39.31
2022-08-11T07:39:17.141Z,39.77
2022-08-11T07:41:44.098Z,38.90
2022-08-11T07:44:11.701Z,39.22
2022-08-11T07:47:07.626Z,38.62
2022-08-11T07:49:57.722Z,37.56
2022-08-11T07:52:34.085Z,37.61
2022-08-11T07:55:08.633Z,37.80
2022-08-11T07:58:16.839Z,36.70
2022-08-11T08:01:22.229Z,36.91
2022-08-11T08:04:09.420Z,37.43
2022-08-11T08:06:56.062Z,37.17
2022-08-11T08:09:43.057Z,36.84
2022-08-11T08:12:29.510Z,35.13
2022-08-11T08:15:15.685Z,35.01
2022-08-11T08:18:20.826Z,34.77
2022-08-11T08:20:46.683Z,34.90
2022-08-11T08:23:13.905Z,34.58
2022-08-11T08:25:43.697Z,34.29
2022-08-11T08:28:16.484Z,32.03
2022-08-11T08:30:47.958Z,32.26
2022-08-11T08:33:19.834Z,32.00
2022-08-11T08:35:56.165Z,32.09
2022-08-11T08:38:23.513Z,29.24
2022-08-11T08:40:55.780Z,29.29
2022-08-11T08:43:24.706Z,29.36
2022-08-11T08:45:56.189Z,28.18
2022-08-11T08:48:30.644Z,28.44
2022-08-11T08:51:54.916Z,28.56
2022-08-11T08:54:39.829Z,28.06
2022-08-11T08:57:09.250Z,29.75
2022-08-11T08:59:47.753Z,25.93
2022-08-11T09:02:34.506Z,26.71
2022-08-11T09:05:04.241Z,26.77
2022-08-11T09:07:36.069Z,26.44
2022-08-11T09:10:08.483Z,24.83
2022-08-11T09:12:38.826Z,25.94
2022-08-11T09:15:09.206Z,25.15
2022-08-11T09:17:40.440Z,26.12
2022-08-11T09:20:09.845Z,25.97
2022-08-11T09:23:41.392Z,27.58
2022-08-11T09:26:05.202Z,26.40
2022-08-11T09:28:32.872Z,28.15
2022-08-11T09:31:02.179Z,27.83
2022-08-11T09:33:31.601Z,26.70
2022-08-11T09:36:20.218Z,26.28
2022-08-11T09:39:06.152Z,25.43
2022-08-11T09:42:00.582Z,26.38
2022-08-11T09:44:40.821Z,26.11
2022-08-11T09:47:13.228Z,23.85
2022-08-11T09:49:45.227Z,25.59
2022-08-11T09:52:13.860Z,25.66
2022-08-11T09:54:48.162Z,23.57
2022-08-11T09:57:37.110Z,23.59
2022-08-11T10:00:12.544Z,23.99
2022-08-11T10:02:44.507Z,21.68
2022-08-11T10:05:33.525Z,23.34
2022-08-11T10:08:01.507Z,23.11
2022-08-11T10:10:29.874Z,22.04
2022-08-11T10:13:04.759Z,22.13
2022-08-11T10:15:36.708Z,22.03
2022-08-11T10:18:27.522Z,21.59
2022-08-11T10:21:28.414Z,20.89
2022-08-11T10:24:17.254Z,20.56
2022-08-11T10:26:57.187Z,19.72
2022-08-11T10:29:51.976Z,23.28
2022-08-11T10:32:57.315Z,21.56
2022-08-11T10:35:30.563Z,21.31
2022-08-11T10:38:06.717Z,20.43
2022-08-11T10:40:38.025Z,20.30
2022-08-11T10:43:10.666Z,21.30
2022-08-11T10:45:57.752Z,23.45
2022-08-11T10:48:28.067Z,22.96
2022-08-11T10:51:13.391Z,23.29
2022-08-11T10:54:05.094Z,21.18
2022-08-11T10:56:58.270Z,20.38
2022-08-11T10:59:30.375Z,20.52
2022-08-11T11:01:59.133Z,19.88
2022-08-11T11:04:37.811Z,20.00
2022-08-11T11:07:13.852Z,19.09
2022-08-11T11:09:51.209Z,17.94
2022-08-11T11:13:17.596Z,18.29
2022-08-11T11:16:05.508Z,18.32
2022-08-11T11:18:40.418Z,17.73
2022-08-11T11:21:10.183Z,17.36
2022-08-11T11:23:53.693Z,17.46
2022-08-11T11:26:35.459Z,17.12
2022-08-11T11:29:20.603Z,16.80
2022-08-11T11:32:06.244Z,18.13
2022-08-11T11:35:10.202Z,18.75
2022-08-11T11:37:38.277Z,18.54
2022-08-11T11:40:12.971Z,17.25
2022-08-11T11:42:41.831Z,16.14
2022-08-11T11:45:10.060Z,16.88
2022-08-11T11:47:41.033Z,16.83
2022-08-11T11:50:09.573Z,16.75
2022-08-11T11:52:39.554Z,17.04
2022-08-11T11:55:07.320Z,16.95
2022-08-11T11:57:58.778Z,16.14
2022-08-11T12:00:45.557Z,16.43
2022-08-11T12:03:13.398Z,15.74
2022-08-11T12:05:43.178Z,15.87
2022-08-11T12:08:22.394Z,15.86
2022-08-11T12:11:30.486Z,15.87
2022-08-11T12:14:02.152Z,15.32
2022-08-11T12:16:34.558Z,15.75
2022-08-11T12:19:06.139Z,16.52
2022-08-11T12:21:35.132Z,14.91
2022-08-11T12:24:22.018Z,14.98
2022-08-11T12:27:14.663Z,15.01
2022-08-11T12:29:36.473Z,15.34
2022-08-11T12:32:09.000Z,16.13
2022-08-11T12:34:36.619Z,16.09
2022-08-11T12:37:07.118Z,15.28
2022-08-11T12:40:12.913Z,15.87
2022-08-11T12:43:21.673Z,15.78
2022-08-11T12:45:58.409Z,15.80
2022-08-11T12:48:59.589Z,15.35
2022-08-11T12:52:11.213Z,14.86
2022-08-11T12:54:38.197Z,15.56
2022-08-11T12:57:36.698Z,15.08
2022-08-11T13:00:25.215Z,15.03
2022-08-11T13:03:11.856Z,15.44
2022-08-11T13:05:44.542Z,15.45
2022-08-11T13:08:16.880Z,15.42
2022-08-11T13:11:04.465Z,15.30
2022-08-11T13:13:53.886Z,15.59
2022-08-11T13:16:20.648Z,15.09
2022-08-11T13:18:48.308Z,14.17
2022-08-11T13:21:20.082Z,15.28
2022-08-11T13:24:00.609Z,15.58
2022-08-11T13:26:47.340Z,14.69
2022-08-11T13:29:21.472Z,14.04
2022-08-11T13:31:48.817Z,14.96
2022-08-11T13:34:17.659Z,15.79
2022-08-11T13:36:45.384Z,15.23
2022-08-11T13:39:13.667Z,15.25
2022-08-11T13:41:44.180Z,14.44
2022-08-11T13:44:15.836Z,14.69
2022-08-11T13:46:46.268Z,14.53
2022-08-11T13:49:17.490Z,14.62
2022-08-11T13:51:44.486Z,15.88
2022-08-11T13:54:18.979Z,15.19
2022-08-11T13:56:48.631Z,16.33
2022-08-11T13:59:20.412Z,15.71
2022-08-11T14:02:19.524Z,17.17
2022-08-11T14:04:58.007Z,15.87
2022-08-11T14:07:35.516Z,15.01
2022-08-11T14:10:07.578Z,15.45
2022-08-11T14:12:55.300Z,14.76
2022-08-11T14:15:31.435Z,14.62
2022-08-11T14:18:11.589Z,14.81
2022-08-11T14:21:00.395Z,14.83
2022-08-11T14:23:35.580Z,13.98
2022-08-11T14:26:26.598Z,14.46
2022-08-11T14:29:14.130Z,14.19
2022-08-11T14:31:45.566Z,13.46
2022-08-11T14:34:14.673Z,14.03
2022-08-11T14:36:47.246Z,14.05
2022-08-11T14:39:20.236Z,14.57
2022-08-11T14:42:26.166Z,15.57
2022-08-11T14:45:15.344Z,15.61
2022-08-11T14:47:44.547Z,14.27
2022-08-11T14:50:16.107Z,14.83
2022-08-11T14:52:48.666Z,15.81
2022-08-11T14:55:35.050Z,15.34
2022-08-11T14:58:03.683Z,15.98
2022-08-11T15:00:34.949Z,14.71
2022-08-11T15:03:13.234Z,15.34
2022-08-11T15:05:55.782Z,15.88
2022-08-11T15:08:46.312Z,15.65
2022-08-11T15:11:34.188Z,15.45
2022-08-11T15:14:04.806Z,15.02
2022-08-11T15:16:50.548Z,14.35
2022-08-11T15:19:21.407Z,15.07
2022-08-11T15:22:08.806Z,15.92
2022-08-11T15:24:37.490Z,16.29
2022-08-11T15:27:34.860Z,15.41
2022-08-11T15:30:33.081Z,15.00
2022-08-11T15:33:27.609Z,16.38
2022-08-11T15:36:15.043Z,16.34
2022-08-11T15:38:55.199Z,15.80
2022-08-11T15:41:46.618Z,16.14
2022-08-11T15:45:02.250Z,15.67
2022-08-11T15:47:37.508Z,15.79
2022-08-11T15:50:10.486Z,15.66
2022-08-11T15:52:46.487Z,16.18
2022-08-11T15:55:14.500Z,16.77
2022-08-11T15:58:15.492Z,16.56
2022-08-11T16:01:09.035Z,16.70
2022-08-11T16:04:07.189Z,16.41
2022-08-11T16:06:37.616Z,16.17
2022-08-11T16:09:17.999Z,15.85
2022-08-11T16:12:12.815Z,16.59
2022-08-11T16:15:06.906Z,17.92
2022-08-11T16:18:04.042Z,17.33
2022-08-11T16:20:34.114Z,18.11
2022-08-11T16:23:07.439Z,17.42
2022-08-11T16:27:01.514Z,17.15
2022-08-11T16:28:26.373Z,16.61
2022-08-11T16:30:55.602Z,16.92
2022-08-11T16:33:51.203Z,17.44
2022-08-11T16:36:31.683Z,18.00
2022-08-11T16:39:00.069Z,18.32
2022-08-11T16:41:49.915Z,18.64
2022-08-11T16:44:38.527Z,18.40
2022-08-11T16:47:10.308Z,18.46
2022-08-11T16:49:43.000Z,18.51
2022-08-11T16:52:14.072Z,18.04
2022-08-11T16:54:44.689Z,18.76
2022-08-11T16:57:43.778Z,17.93
2022-08-11T17:00:16.187Z,18.49
2022-08-11T17:03:10.279Z,18.96
2022-08-11T17:06:00.541Z,18.61
2022-08-11T17:08:56.750Z,19.03
2022-08-11T17:11:46.585Z,19.09
2022-08-11T17:14:16.408Z,18.68
2022-08-11T17:16:49.182Z,18.84
2022-08-11T17:20:42.730Z,19.32
2022-08-11T17:22:38.006Z,19.68
2022-08-11T17:25:09.965Z,21.34
2022-08-11T17:27:39.057Z,20.45
2022-08-11T17:30:08.293Z,19.66
2022-08-11T17:33:00.614Z,20.29
2022-08-11T17:35:35.981Z,19.61
2022-08-11T17:38:17.694Z,19.49
2022-08-11T17:41:10.535Z,19.42
2022-08-11T17:44:05.381Z,19.79
2022-08-11T17:46:52.848Z,20.73
2022-08-11T17:49:20.461Z,21.22
2022-08-11T17:52:08.615Z,21.16
2022-08-11T17:54:56.296Z,21.19
2022-08-11T17:57:47.058Z,21.78
2022-08-11T18:00:15.308Z,22.41
2022-08-11T18:03:03.522Z,22.46
2022-08-11T18:05:34.055Z,22.74
2022-08-11T18:08:27.329Z,22.38
2022-08-11T18:11:17.214Z,23.62
2022-08-11T18:14:11.344Z,23.10
2022-08-11T18:16:57.119Z,24.62
2022-08-11T18:19:42.817Z,25.73
2022-08-11T18:22:34.567Z,25.68
2022-08-11T18:25:49.576Z,25.54
2022-08-11T18:28:39.668Z,26.71
2022-08-11T18:31:28.148Z,27.26
2022-08-11T18:34:16.586Z,26.89
2022-08-11T18:37:10.110Z,25.66
2022-08-11T18:40:08.758Z,25.75
2022-08-11T18:42:55.314Z,25.42
2022-08-11T18:45:46.092Z,25.75
2022-08-11T18:48:37.131Z,25.91
2022-08-11T18:51:31.558Z,25.79
2022-08-11T18:54:27.403Z,26.66
2022-08-11T18:57:16.509Z,26.67
2022-08-11T19:00:03.522Z,27.36
2022-08-11T19:02:51.042Z,26.73
2022-08-11T19:06:35.622Z,26.92
2022-08-11T19:08:50.039Z,27.42
2022-08-11T19:11:42.425Z,26.98
2022-08-11T19:14:31.854Z,27.33
2022-08-11T19:17:43.647Z,27.53
2022-08-11T19:20:30.245Z,27.94
2022-08-11T19:23:17.034Z,28.09
2022-08-11T19:26:03.897Z,28.34
2022-08-11T19:28:50.958Z,28.83
2022-08-11T19:31:42.305Z,29.24
2022-08-11T19:34:33.195Z,29.40
2022-08-11T19:37:24.090Z,30.25
2022-08-11T19:40:12.863Z,30.27
2022-08-11T19:43:02.492Z,30.56
2022-08-11T19:45:50.575Z,30.13
2022-08-11T19:48:40.326Z,30.58
2022-08-11T19:51:28.320Z,31.10
2022-08-11T19:54:14.368Z,31.86
2022-08-11T19:57:02.559Z,31.30
2022-08-11T19:59:49.197Z,31.81
2022-08-11T20:02:36.081Z,31.92
2022-08-11T20:05:22.222Z,32.08
2022-08-11T20:08:10.579Z,31.93
2022-08-11T20:10:56.807Z,32.63
2022-08-11T20:13:44.774Z,32.25
2022-08-11T20:16:32.677Z,32.77
2022-08-11T20:19:26.308Z,32.73
2022-08-11T20:22:26.969Z,33.07
2022-08-11T20:25:14.037Z,32.41
2022-08-11T20:28:04.497Z,33.22
2022-08-11T20:30:51.659Z,33.20
2022-08-11T20:33:41.312Z,32.83
2022-08-11T20:36:27.339Z,32.79
2022-08-11T20:39:14.510Z,33.51
2022-08-11T20:42:00.781Z,33.88
2022-08-11T20:44:48.228Z,34.18
2022-08-11T20:47:56.319Z,34.26
2022-08-11T20:50:45.689Z,34.58
2022-08-11T20:53:36.759Z,34.44
2022-08-11T20:56:28.563Z,34.77
2022-08-11T20:59:18.788Z,35.37
2022-08-11T21:02:09.625Z,35.78
2022-08-11T21:04:57.697Z,35.70
2022-08-11T21:07:57.330Z,35.88
2022-08-11T21:10:51.423Z,35.79
2022-08-11T21:16:49.471Z,36.56
2022-08-11T21:20:06.559Z,37.05
2022-08-11T21:23:05.408Z,37.17
2022-08-11T21:26:08.210Z,37.27
2022-08-11T21:28:56.282Z,37.45
2022-08-11T21:31:44.039Z,37.55
2022-08-11T21:34:40.642Z,37.16
2022-08-11T21:37:27.744Z,37.27
2022-08-11T21:40:17.051Z,37.10
2022-08-11T21:43:07.444Z,37.55
2022-08-11T21:45:55.653Z,37.48
2022-08-11T21:48:45.983Z,37.39
2022-08-11T21:51:32.483Z,37.28
2022-08-11T21:54:19.647Z,37.53
2022-08-11T21:57:06.299Z,37.77
2022-08-11T22:00:18.823Z,38.12
2022-08-11T22:03:07.064Z,38.01
2022-08-11T22:05:53.536Z,37.93
2022-08-11T22:08:38.791Z,37.87
2022-08-11T22:11:32.037Z,38.03
2022-08-11T22:14:18.387Z,37.80
2022-08-11T22:17:03.564Z,37.80
2022-08-11T22:19:49.435Z,37.88
2022-08-11T22:22:52.254Z,38.02
2022-08-11T22:25:51.037Z,37.87
2022-08-11T22:28:37.165Z,38.32
2022-08-11T22:31:24.345Z,38.71
2022-08-11T22:34:09.695Z,38.58
2022-08-11T22:36:55.010Z,38.59
2022-08-11T22:39:41.446Z,38.50
2022-08-11T22:42:33.709Z,38.55
2022-08-11T22:45:20.056Z,38.56
2022-08-11T22:48:07.816Z,38.56
2022-08-11T22:50:55.761Z,38.41
2022-08-11T22:53:57.715Z,38.83
2022-08-11T22:56:45.528Z,39.11
2022-08-11T22:59:31.916Z,39.54
2022-08-11T23:02:19.878Z,39.39
2022-08-11T23:05:07.249Z,39.85
2022-08-11T23:07:53.909Z,39.97
2022-08-11T23:10:39.818Z,40.21
2022-08-11T23:13:26.460Z,40.03
2022-08-11T23:16:13.805Z,40.14
2022-08-11T23:18:59.606Z,40.14
2022-08-11T23:21:46.906Z,39.87
2022-08-11T23:24:32.786Z,40.03
2022-08-11T23:27:19.358Z,40.29
2022-08-11T23:30:06.522Z,40.46
2022-08-11T23:32:52.753Z,40.39
2022-08-11T23:35:53.628Z,40.73
2022-08-11T23:38:40.855Z,41.04
2022-08-11T23:41:26.177Z,41.23
2022-08-11T23:44:11.809Z,41.64
2022-08-11T23:46:57.900Z,41.71
2022-08-11T23:49:43.464Z,41.65
2022-08-11T23:52:30.518Z,41.88
2022-08-11T23:55:16.932Z,42.12
2022-08-11T23:58:03.152Z,42.07
